createdAt,value
2023-02-27T00:00:22.179Z,-2.35
2023-02-27T00:02:49.865Z,-2.07
2023-02-27T00:05:16.519Z,-2.26
2023-02-27T00:07:42.909Z,-2.10
2023-02-27T00:10:09.853Z,-2.37
2023-02-27T00:12:37.781Z,-2.41
2023-02-27T00:15:05.292Z,-2.47
2023-02-27T00:17:31.821Z,-2.21
2023-02-27T00:19:58.112Z,-2.49
2023-02-27T00:22:24.420Z,-2.34
2023-02-27T00:24:50.778Z,-2.38
2023-02-27T00:27:17.122Z,-2.54
2023-02-27T00:29:43.430Z,-2.48
2023-02-27T00:32:09.875Z,-2.70
2023-02-27T00:34:36.300Z,-2.65
2023-02-27T00:37:02.789Z,-2.73
2023-02-27T00:39:29.105Z,-2.60
2023-02-27T00:41:55.394Z,-2.66
2023-02-27T00:44:21.716Z,-2.49
2023-02-27T00:46:48.087Z,-2.58
2023-02-27T00:49:14.476Z,-2.69
2023-02-27T00:51:40.794Z,-2.78
2023-02-27T00:54:07.116Z,-2.69
2023-02-27T00:56:34.643Z,-2.97
2023-02-27T00:59:00.956Z,-2.63
2023-02-27T01:01:27.619Z,-2.71
2023-02-27T01:03:54.110Z,-2.86
2023-02-27T01:06:20.456Z,-2.84
2023-02-27T01:08:46.825Z,-2.98
2023-02-27T01:11:13.139Z,-2.82
2023-02-27T01:13:39.520Z,-2.89
2023-02-27T01:16:06.151Z,-2.85
2023-02-27T01:18:32.485Z,-3.05
2023-02-27T01:20:58.797Z,-2.80
2023-02-27T01:23:25.110Z,-2.54
2023-02-27T01:25:51.480Z,-2.48
2023-02-27T01:28:17.796Z,-2.25
2023-02-27T01:30:44.409Z,-2.29
2023-02-27T01:33:10.756Z,-2.07
2023-02-27T01:35:37.036Z,-2.01
2023-02-27T01:38:03.367Z,-2.05
2023-02-27T01:40:29.689Z,-1.86
2023-02-27T01:42:55.993Z,-1.75
2023-02-27T01:45:22.271Z,-1.66
2023-02-27T01:47:52.201Z,-1.81
2023-02-27T01:50:19.423Z,-1.76
2023-02-27T01:52:48.977Z,-1.69
2023-02-27T01:55:15.807Z,-1.74
2023-02-27T01:57:45.217Z,-1.73
2023-02-27T02:00:12.294Z,-1.56
2023-02-27T02:02:40.654Z,-1.46
2023-02-27T02:05:07.367Z,-1.59
2023-02-27T02:07:35.680Z,-1.53
2023-02-27T02:10:02.406Z,-1.36
2023-02-27T02:12:30.280Z,-1.71
2023-02-27T02:14:56.585Z,-1.59
2023-02-27T02:17:41.157Z,-1.82
2023-02-27T02:20:26.152Z,-1.76
2023-02-27T02:23:06.808Z,-1.54
2023-02-27T02:25:36.011Z,-1.58
2023-02-27T02:28:05.326Z,-1.44
2023-02-27T02:30:31.673Z,-1.55
2023-02-27T02:33:24.355Z,-1.56
2023-02-27T02:35:53.671Z,-1.46
2023-02-27T02:38:28.757Z,-1.70
2023-02-27T02:41:13.812Z,-1.75
2023-02-27T02:44:02.162Z,-1.43
2023-02-27T02:46:39.024Z,-1.68
2023-02-27T02:49:11.388Z,-1.69
2023-02-27T02:51:37.701Z,-1.64
2023-02-27T02:54:12.496Z,-1.60
2023-02-27T02:56:41.424Z,-1.63
2023-02-27T02:59:12.892Z,-1.54
2023-02-27T03:01:42.484Z,-1.91
2023-02-27T03:04:14.849Z,-2.02
2023-02-27T03:06:44.946Z,-2.05
2023-02-27T03:09:11.254Z,-1.93
2023-02-27T03:11:40.632Z,-1.94
2023-02-27T03:14:10.675Z,-2.01
2023-02-27T03:16:45.634Z,-2.23
2023-02-27T03:19:18.540Z,-2.34
2023-02-27T03:21:44.832Z,-2.18
2023-02-27T03:24:23.047Z,-2.29
2023-02-27T03:26:51.866Z,-2.21
2023-02-27T03:29:26.362Z,-2.16
2023-02-27T03:31:53.215Z,-2.44
2023-02-27T03:34:26.061Z,-2.40
2023-02-27T03:36:55.423Z,-2.48
2023-02-27T03:39:35.971Z,-2.46
2023-02-27T03:42:14.644Z,-2.46
2023-02-27T03:44:43.972Z,-2.56
2023-02-27T03:47:10.281Z,-2.51
2023-02-27T03:49:36.618Z,-2.60
2023-02-27T03:52:03.833Z,-2.45
2023-02-27T03:54:33.657Z,-2.39
2023-02-27T03:57:04.585Z,-2.57
2023-02-27T03:59:31.785Z,-2.67
2023-02-27T04:01:58.695Z,-2.60
2023-02-27T04:04:27.662Z,-2.55
2023-02-27T04:07:16.118Z,-2.57
2023-02-27T04:10:00.940Z,-2.61
2023-02-27T04:12:27.245Z,-2.53
2023-02-27T04:14:59.712Z,-2.60
2023-02-27T04:17:26.622Z,-2.56
2023-02-27T04:20:13.537Z,-2.63
2023-02-27T04:22:55.627Z,-2.66
2023-02-27T04:25:24.872Z,-2.77
2023-02-27T04:27:54.249Z,-2.89
2023-02-27T04:30:26.243Z,-2.77
2023-02-27T04:33:09.392Z,-2.96
2023-02-27T04:35:42.777Z,-3.29
2023-02-27T04:38:17.974Z,-3.06
2023-02-27T04:41:04.587Z,-2.99
2023-02-27T04:43:31.755Z,-3.05
2023-02-27T04:45:59.813Z,-3.20
2023-02-27T04:48:28.276Z,-3.30
2023-02-27T04:51:00.176Z,-3.37
2023-02-27T04:53:31.247Z,-3.42
2023-02-27T04:56:02.309Z,-3.32
2023-02-27T04:58:32.276Z,-3.24
2023-02-27T05:01:01.177Z,-3.24
2023-02-27T05:03:31.849Z,-3.16
2023-02-27T05:06:00.117Z,-3.11
2023-02-27T05:08:26.400Z,-3.06
2023-02-27T05:10:58.626Z,-2.87
2023-02-27T05:13:28.369Z,-3.03
2023-02-27T05:15:58.377Z,-3.26
2023-02-27T05:18:25.243Z,-3.16
2023-02-27T05:20:56.145Z,-3.31
2023-02-27T05:23:30.370Z,-3.30
2023-02-27T05:26:13.401Z,-3.44
2023-02-27T05:28:59.966Z,-3.65
2023-02-27T05:31:32.627Z,-3.62
2023-02-27T05:34:12.282Z,-3.61
2023-02-27T05:36:41.995Z,-3.60
2023-02-27T05:39:09.952Z,-3.45
2023-02-27T05:41:42.762Z,-3.55
2023-02-27T05:44:14.761Z,-3.44
2023-02-27T05:47:00.690Z,-3.51
2023-02-27T05:49:30.163Z,-3.38
2023-02-27T05:51:58.194Z,-3.64
2023-02-27T05:54:29.391Z,-3.42
2023-02-27T05:56:57.406Z,-3.36
2023-02-27T05:59:26.771Z,-3.51
2023-02-27T06:01:53.178Z,-3.50
2023-02-27T06:04:19.734Z,-3.46
2023-02-27T06:06:46.121Z,-3.27
2023-02-27T06:09:12.551Z,-3.38
2023-02-27T06:11:38.874Z,-3.30
2023-02-27T06:14:05.172Z,-3.06
2023-02-27T06:16:31.563Z,-3.12
2023-02-27T06:18:57.944Z,-3.13
2023-02-27T06:21:24.273Z,-3.25
2023-02-27T06:23:50.665Z,-3.24
2023-02-27T06:26:17.548Z,-3.14
2023-02-27T06:28:43.826Z,-2.96
2023-02-27T06:31:10.216Z,-3.31
2023-02-27T06:33:36.580Z,-3.26
2023-02-27T06:36:02.951Z,-3.13
2023-02-27T06:38:29.285Z,-3.09
2023-02-27T06:40:55.568Z,-3.33
2023-02-27T06:43:24.890Z,-3.20
2023-02-27T06:45:53.857Z,-3.02
2023-02-27T06:48:20.187Z,-2.52
2023-02-27T06:50:50.521Z,-2.84
2023-02-27T06:53:16.872Z,-2.50
2023-02-27T06:55:43.225Z,-2.49
2023-02-27T06:58:09.540Z,-2.27
2023-02-27T07:00:35.856Z,-2.58
2023-02-27T07:03:04.388Z,-2.43
2023-02-27T07:05:31.354Z,-2.09
2023-02-27T07:07:58.703Z,-1.92
2023-02-27T07:10:25.685Z,-2.35
2023-02-27T07:12:52.013Z,-2.08
2023-02-27T07:15:18.367Z,-2.27
2023-02-27T07:17:44.682Z,-2.05
2023-02-27T07:20:11.590Z,-2.04
2023-02-27T07:22:38.793Z,-1.80
2023-02-27T07:25:05.373Z,-1.72
2023-02-27T07:27:31.952Z,-1.65
2023-02-27T07:29:58.377Z,-1.63
2023-02-27T07:32:24.765Z,-1.43
2023-02-27T07:34:51.093Z,-1.44
2023-02-27T07:37:17.444Z,-1.09
2023-02-27T07:39:44.910Z,-1.10
2023-02-27T07:42:11.504Z,-1.16
2023-02-27T07:44:37.839Z,-0.94
2023-02-27T07:47:04.183Z,-0.97
2023-02-27T07:49:30.521Z,-0.83
2023-02-27T07:51:56.946Z,-0.75
2023-02-27T07:54:23.321Z,-0.72
2023-02-27T07:56:49.649Z,-0.67
2023-02-27T07:59:15.994Z,-0.55
2023-02-27T08:01:42.331Z,-0.50
2023-02-27T08:04:08.739Z,-0.29
2023-02-27T08:06:35.061Z,-0.28
2023-02-27T08:09:01.523Z,-0.45
2023-02-27T08:11:28.165Z,-0.27
2023-02-27T08:14:02.572Z,-0.31
2023-02-27T08:16:30.800Z,-0.37
2023-02-27T08:18:57.610Z,-0.29
2023-02-27T08:21:23.948Z,-0.24
2023-02-27T08:23:50.276Z,-0.08
2023-02-27T08:26:16.595Z,0.01
2023-02-27T08:28:43.151Z,0.34
2023-02-27T08:31:09.545Z,0.33
2023-02-27T08:33:36.006Z,0.47
2023-02-27T08:36:02.583Z,0.55
2023-02-27T08:38:28.944Z,0.68
2023-02-27T08:40:55.333Z,0.80
2023-02-27T08:43:22.276Z,0.87
2023-02-27T08:45:49.206Z,0.93
2023-02-27T08:48:17.203Z,0.69
2023-02-27T08:50:43.952Z,1.03
2023-02-27T08:53:10.779Z,1.14
2023-02-27T08:55:37.256Z,0.85
2023-02-27T08:58:03.550Z,0.80
2023-02-27T09:00:30.862Z,0.59
2023-02-27T09:02:57.277Z,0.40
2023-02-27T09:05:23.627Z,0.90
2023-02-27T09:07:50.057Z,1.16
2023-02-27T09:10:17.756Z,1.12
2023-02-27T09:12:44.280Z,1.37
2023-02-27T09:15:11.423Z,1.16
2023-02-27T09:17:38.015Z,1.15
2023-02-27T09:20:04.935Z,1.22
2023-02-27T09:22:31.276Z,1.51
2023-02-27T09:24:57.598Z,1.81
2023-02-27T09:27:24.163Z,1.68
2023-02-27T09:29:55.404Z,1.80
2023-02-27T09:32:25.434Z,1.78
2023-02-27T09:34:51.861Z,1.91
2023-02-27T09:37:21.328Z,1.75
2023-02-27T09:39:47.806Z,1.87
2023-02-27T09:42:22.995Z,1.97
2023-02-27T09:44:50.755Z,1.90
2023-02-27T09:47:23.424Z,1.58
2023-02-27T09:49:55.326Z,1.80
2023-02-27T09:52:21.626Z,1.74
2023-02-27T09:54:48.610Z,1.95
2023-02-27T09:57:24.493Z,1.77
2023-02-27T09:59:53.271Z,1.67
2023-02-27T10:02:29.739Z,1.85
2023-02-27T10:05:14.572Z,2.10
2023-02-27T10:08:01.018Z,2.21
2023-02-27T10:10:36.322Z,2.40
2023-02-27T10:13:14.828Z,2.50
2023-02-27T10:15:43.623Z,2.55
2023-02-27T10:18:28.430Z,2.57
2023-02-27T10:21:02.481Z,2.75
2023-02-27T10:23:44.000Z,2.72
2023-02-27T10:26:26.300Z,2.63
2023-02-27T10:28:52.682Z,2.41
2023-02-27T10:31:24.414Z,2.34
2023-02-27T10:33:51.788Z,2.58
2023-02-27T10:36:32.615Z,2.63
2023-02-27T10:39:03.519Z,2.74
2023-02-27T10:41:30.774Z,2.90
2023-02-27T10:43:58.339Z,2.72
2023-02-27T10:46:27.380Z,2.17
2023-02-27T10:48:54.240Z,2.67
2023-02-27T10:51:28.377Z,2.42
2023-02-27T10:54:13.975Z,2.53
2023-02-27T10:56:40.615Z,2.66
2023-02-27T10:59:08.129Z,2.70
2023-02-27T11:01:45.229Z,2.51
2023-02-27T11:04:12.455Z,2.82
2023-02-27T11:06:38.932Z,2.96
2023-02-27T11:09:23.173Z,2.91
2023-02-27T11:11:50.258Z,2.88
2023-02-27T11:14:19.312Z,2.76
2023-02-27T11:16:50.457Z,2.71
2023-02-27T11:19:25.791Z,2.95
2023-02-27T11:22:04.455Z,2.98
2023-02-27T11:24:31.082Z,2.78
2023-02-27T11:27:03.703Z,2.75
2023-02-27T11:29:30.087Z,2.72
2023-02-27T11:32:13.394Z,2.59
2023-02-27T11:34:46.326Z,2.61
2023-02-27T11:37:18.829Z,2.69
2023-02-27T11:39:49.426Z,2.59
2023-02-27T11:42:17.831Z,2.86
2023-02-27T11:44:53.830Z,2.68
2023-02-27T11:47:24.859Z,2.61
2023-02-27T11:50:06.528Z,2.59
2023-02-27T11:52:53.113Z,2.60
2023-02-27T11:55:25.734Z,2.70
2023-02-27T11:58:05.203Z,2.76
2023-02-27T12:00:36.550Z,2.69
2023-02-27T12:03:21.358Z,2.86
2023-02-27T12:05:50.273Z,2.95
2023-02-27T12:08:27.744Z,3.05
2023-02-27T12:10:55.586Z,3.15
2023-02-27T12:13:31.583Z,3.21
2023-02-27T12:16:10.267Z,3.34
2023-02-27T12:18:36.586Z,3.38
2023-02-27T12:21:02.904Z,3.49
2023-02-27T12:23:35.373Z,3.54
2023-02-27T12:26:05.729Z,3.64
2023-02-27T12:28:50.862Z,3.66
2023-02-27T12:31:20.237Z,3.71
2023-02-27T12:33:53.355Z,3.74
2023-02-27T12:36:19.739Z,3.68
2023-02-27T12:38:46.124Z,3.68
2023-02-27T12:41:19.004Z,3.72
2023-02-27T12:44:04.074Z,3.75
2023-02-27T12:47:08.992Z,3.67
2023-02-27T12:49:38.162Z,3.60
2023-02-27T12:52:07.420Z,3.55
2023-02-27T12:54:46.537Z,3.69
2023-02-27T12:57:31.874Z,3.89
2023-02-27T13:00:01.212Z,3.95
2023-02-27T13:02:36.618Z,4.15
2023-02-27T13:05:24.053Z,4.19
2023-02-27T13:08:09.396Z,4.17
2023-02-27T13:10:54.253Z,4.27
2023-02-27T13:13:26.069Z,4.22
2023-02-27T13:15:59.277Z,4.21
2023-02-27T13:18:48.169Z,4.27
2023-02-27T13:21:17.332Z,4.29
2023-02-27T13:23:49.846Z,4.23
2023-02-27T13:26:23.105Z,4.34
2023-02-27T13:28:50.328Z,4.38
2023-02-27T13:31:27.043Z,4.41
2023-02-27T13:34:04.542Z,4.34
2023-02-27T13:36:51.107Z,4.56
2023-02-27T13:39:56.254Z,4.57
2023-02-27T13:42:28.875Z,4.39
2023-02-27T13:44:56.442Z,4.50
2023-02-27T13:47:40.302Z,4.47
2023-02-27T13:50:18.884Z,4.57
2023-02-27T13:52:46.764Z,4.61
2023-02-27T13:55:27.114Z,4.52
2023-02-27T13:57:57.563Z,4.59
2023-02-27T14:00:25.323Z,4.49
2023-02-27T14:03:10.647Z,4.52
2023-02-27T14:05:39.153Z,4.33
2023-02-27T14:08:10.326Z,4.51
2023-02-27T14:10:37.576Z,4.40
2023-02-27T14:13:05.154Z,4.48
2023-02-27T14:15:31.940Z,4.40
2023-02-27T14:18:12.374Z,4.53
2023-02-27T14:20:42.137Z,4.51
2023-02-27T14:23:17.510Z,4.61
2023-02-27T14:25:54.549Z,4.56
2023-02-27T14:28:39.845Z,4.41
2023-02-27T14:31:08.745Z,4.09
2023-02-27T14:33:43.819Z,4.00
2023-02-27T14:36:17.075Z,3.86
2023-02-27T14:38:43.604Z,4.09
2023-02-27T14:41:14.963Z,4.00
2023-02-27T14:43:44.873Z,3.87
2023-02-27T14:46:14.402Z,3.82
2023-02-27T14:48:40.842Z,3.80
2023-02-27T14:51:07.395Z,3.56
2023-02-27T14:53:34.708Z,3.58
2023-02-27T14:56:00.996Z,3.81
2023-02-27T14:58:28.274Z,3.68
2023-02-27T15:01:03.325Z,3.68
2023-02-27T15:03:34.608Z,3.66
2023-02-27T15:06:02.030Z,3.71
2023-02-27T15:08:29.579Z,3.65
2023-02-27T15:10:57.233Z,3.70
2023-02-27T15:13:29.835Z,3.98
2023-02-27T15:16:16.745Z,3.97
2023-02-27T15:18:45.567Z,4.01
2023-02-27T15:21:14.750Z,4.08
2023-02-27T15:23:41.320Z,4.20
2023-02-27T15:26:12.687Z,4.03
2023-02-27T15:28:39.092Z,4.28
2023-02-27T15:31:08.194Z,4.33
2023-02-27T15:33:34.779Z,4.13
2023-02-27T15:36:01.490Z,4.27
2023-02-27T15:38:32.761Z,4.26
2023-02-27T15:41:00.419Z,4.19
2023-02-27T15:43:27.697Z,4.03
2023-02-27T15:45:54.682Z,4.06
2023-02-27T15:48:21.718Z,3.89
2023-02-27T15:50:58.464Z,3.92
2023-02-27T15:53:26.298Z,3.86
2023-02-27T15:55:53.982Z,3.87
2023-02-27T15:58:24.652Z,3.82
2023-02-27T16:01:02.131Z,3.66
2023-02-27T16:03:33.051Z,3.59
2023-02-27T16:06:00.298Z,3.44
2023-02-27T16:08:28.290Z,3.31
2023-02-27T16:10:54.762Z,3.15
2023-02-27T16:13:40.082Z,3.17
2023-02-27T16:16:28.179Z,3.06
2023-02-27T16:18:56.798Z,2.93
2023-02-27T16:21:27.227Z,2.86
2023-02-27T16:23:54.113Z,2.79
2023-02-27T16:26:20.855Z,2.81
2023-02-27T16:29:00.083Z,2.65
2023-02-27T16:31:39.609Z,2.64
2023-02-27T16:34:26.177Z,2.50
2023-02-27T16:36:58.723Z,2.45
2023-02-27T16:39:25.196Z,2.41
2023-02-27T16:41:52.293Z,2.42
2023-02-27T16:44:18.583Z,2.40
2023-02-27T16:46:45.066Z,2.21
2023-02-27T16:49:22.386Z,2.17
2023-02-27T16:51:48.876Z,2.17
2023-02-27T16:54:16.542Z,2.03
2023-02-27T16:56:44.440Z,1.93
2023-02-27T16:59:22.700Z,1.91
2023-02-27T17:01:49.513Z,1.86
2023-02-27T17:04:25.285Z,1.73
2023-02-27T17:06:53.186Z,1.66
2023-02-27T17:09:19.650Z,1.51
2023-02-27T17:11:46.092Z,1.58
2023-02-27T17:14:12.670Z,1.30
2023-02-27T17:16:39.190Z,1.24
2023-02-27T17:19:05.934Z,1.07
2023-02-27T17:21:35.135Z,1.14
2023-02-27T17:24:02.202Z,0.93
2023-02-27T17:26:29.368Z,0.82
2023-02-27T17:28:56.406Z,0.83
2023-02-27T17:31:24.125Z,0.84
2023-02-27T17:33:51.110Z,0.62
2023-02-27T17:36:18.023Z,0.53
2023-02-27T17:38:44.374Z,0.63
2023-02-27T17:41:12.185Z,0.53
2023-02-27T17:43:39.012Z,0.63
2023-02-27T17:46:07.969Z,0.46
2023-02-27T17:48:35.510Z,0.46
2023-02-27T17:51:05.484Z,0.28
2023-02-27T17:53:31.832Z,0.31
2023-02-27T17:55:58.205Z,0.45
2023-02-27T17:58:24.566Z,0.23
2023-02-27T18:00:50.874Z,0.16
2023-02-27T18:03:17.236Z,0.17
2023-02-27T18:05:52.903Z,0.02
2023-02-27T18:08:19.560Z,0.01
2023-02-27T18:10:46.792Z,0.01
2023-02-27T18:13:13.160Z,-0.01
2023-02-27T18:15:39.524Z,-0.12
2023-02-27T18:18:05.863Z,-0.08
2023-02-27T18:20:32.207Z,-0.19
2023-02-27T18:22:58.523Z,-0.07
2023-02-27T18:25:24.921Z,-0.12
2023-02-27T18:27:51.294Z,-0.15
2023-02-27T18:30:19.432Z,-0.22
2023-02-27T18:32:45.827Z,-0.30
2023-02-27T18:35:12.503Z,-0.25
2023-02-27T18:37:39.109Z,-0.24
2023-02-27T18:40:06.063Z,-0.19
2023-02-27T18:42:32.715Z,-0.20
2023-02-27T18:44:59.147Z,-0.28
2023-02-27T18:47:25.726Z,-0.21
2023-02-27T18:49:52.088Z,-0.18
2023-02-27T18:52:18.530Z,-0.11
2023-02-27T18:54:44.835Z,-0.06
2023-02-27T18:57:11.185Z,-0.11
2023-02-27T18:59:37.731Z,-0.10
2023-02-27T19:02:04.265Z,0.12
2023-02-27T19:04:33.642Z,-0.03
2023-02-27T19:07:00.352Z,0.09
2023-02-27T19:09:32.566Z,-0.12
2023-02-27T19:11:59.260Z,-0.15
2023-02-27T19:14:25.896Z,0.07
2023-02-27T19:16:52.313Z,0.04
2023-02-27T19:19:19.018Z,0.07
2023-02-27T19:21:47.829Z,-0.12
2023-02-27T19:24:16.517Z,-0.22
2023-02-27T19:26:42.839Z,-0.40
2023-02-27T19:29:09.188Z,-0.58
2023-02-27T19:31:35.508Z,-0.46
2023-02-27T19:34:02.001Z,-0.14
2023-02-27T19:36:29.704Z,-0.39
2023-02-27T19:38:56.799Z,-0.55
2023-02-27T19:41:23.840Z,-0.53
2023-02-27T19:43:50.948Z,-0.38
2023-02-27T19:46:23.671Z,-0.50
2023-02-27T19:48:50.641Z,-0.66
2023-02-27T19:51:16.926Z,-0.85
2023-02-27T19:53:45.866Z,-0.89
2023-02-27T19:56:13.315Z,-0.97
2023-02-27T19:58:39.810Z,-0.93
2023-02-27T20:01:06.691Z,-0.86
2023-02-27T20:03:33.332Z,-0.90
2023-02-27T20:05:59.895Z,-0.94
2023-02-27T20:08:33.078Z,-1.04
2023-02-27T20:11:00.466Z,-1.11
2023-02-27T20:13:27.432Z,-1.14
2023-02-27T20:15:57.729Z,-1.19
2023-02-27T20:18:24.745Z,-1.23
2023-02-27T20:21:01.706Z,-1.08
2023-02-27T20:23:28.153Z,-1.14
2023-02-27T20:25:54.650Z,-1.43
2023-02-27T20:28:21.289Z,-1.33
2023-02-27T20:30:47.665Z,-1.44
2023-02-27T20:33:14.026Z,-1.52
2023-02-27T20:35:40.604Z,-1.36
2023-02-27T20:38:07.745Z,-1.26
2023-02-27T20:40:34.169Z,-1.42
2023-02-27T20:43:00.539Z,-1.42
2023-02-27T20:45:28.176Z,-1.52
2023-02-27T20:47:55.134Z,-1.21
2023-02-27T20:50:21.725Z,-1.02
2023-02-27T20:52:48.056Z,-0.93
2023-02-27T20:55:14.382Z,-0.99
2023-02-27T20:57:40.857Z,-1.10
2023-02-27T21:00:11.706Z,-1.07
2023-02-27T21:02:38.004Z,-0.93
2023-02-27T21:05:04.609Z,-0.94
2023-02-27T21:07:31.117Z,-1.08
2023-02-27T21:09:57.457Z,-1.17
2023-02-27T21:12:23.807Z,-1.23
2023-02-27T21:14:50.161Z,-1.38
2023-02-27T21:17:16.631Z,-1.49
2023-02-27T21:19:43.049Z,-1.44
2023-02-27T21:22:11.113Z,-1.33
2023-02-27T21:24:37.777Z,-1.47
2023-02-27T21:27:04.087Z,-1.57
2023-02-27T21:29:30.375Z,-1.36
2023-02-27T21:31:56.904Z,-1.34
2023-02-27T21:34:24.749Z,-1.45
2023-02-27T21:36:52.083Z,-1.46
2023-02-27T21:39:20.086Z,-1.48
2023-02-27T21:41:46.935Z,-1.29
2023-02-27T21:44:14.921Z,-0.97
2023-02-27T21:46:41.286Z,-1.00
2023-02-27T21:49:10.033Z,-0.80
2023-02-27T21:51:40.904Z,-0.72
2023-02-27T21:54:09.069Z,-0.92
2023-02-27T21:56:35.514Z,-1.04
2023-02-27T21:59:02.132Z,-1.00
2023-02-27T22:01:29.341Z,-1.30
2023-02-27T22:03:56.656Z,-1.34
2023-02-27T22:06:23.922Z,-1.36
2023-02-27T22:08:57.520Z,-1.45
2023-02-27T22:11:24.426Z,-1.53
2023-02-27T22:13:50.781Z,-1.52
2023-02-27T22:16:17.684Z,-1.47
2023-02-27T22:18:44.239Z,-1.42
2023-02-27T22:21:12.788Z,-1.42
2023-02-27T22:23:39.161Z,-1.39
2023-02-27T22:26:09.866Z,-1.38
2023-02-27T22:28:38.936Z,-1.64
2023-02-27T22:31:25.594Z,-1.76
2023-02-27T22:33:53.829Z,-1.61
2023-02-27T22:36:24.227Z,-1.65
2023-02-27T22:38:50.925Z,-1.62
2023-02-27T22:41:22.022Z,-1.64
2023-02-27T22:43:48.442Z,-1.57
2023-02-27T22:46:16.929Z,-1.78
2023-02-27T22:48:43.348Z,-1.96
2023-02-27T22:51:14.374Z,-1.92
2023-02-27T22:53:41.661Z,-1.92
2023-02-27T22:56:09.715Z,-2.05
2023-02-27T22:58:39.282Z,-2.11
2023-02-27T23:01:14.815Z,-2.01
2023-02-27T23:03:41.576Z,-2.19
2023-02-27T23:06:08.710Z,-1.97
2023-02-27T23:08:35.355Z,-2.02
2023-02-27T23:11:01.684Z,-1.97
2023-02-27T23:13:28.026Z,-1.91
2023-02-27T23:15:54.793Z,-1.95
2023-02-27T23:18:21.173Z,-2.22
2023-02-27T23:20:47.493Z,-1.98
2023-02-27T23:23:13.849Z,-1.95
2023-02-27T23:25:40.176Z,-2.03
2023-02-27T23:28:06.714Z,-1.93
2023-02-27T23:30:33.489Z,-1.84
2023-02-27T23:32:59.821Z,-1.86
2023-02-27T23:35:26.675Z,-1.93
2023-02-27T23:37:54.159Z,-2.07
2023-02-27T23:40:21.760Z,-2.11
2023-02-27T23:42:48.097Z,-2.02
2023-02-27T23:45:23.490Z,-2.02
2023-02-27T23:47:54.063Z,-1.97
2023-02-27T23:50:28.320Z,-2.03
2023-02-27T23:52:55.433Z,-2.24
2023-02-27T23:55:21.900Z,-2.19
2023-02-27T23:57:51.550Z,-2.30
